In Rescue
 
Open Full Screen Window  High Contrast Mode
Wind Gusting 09 knots
06
June 26, 2019 4:34 PM CDT
Weather Information
Wind Direction
  160 °
Wind Speed
  06 kt (7 mph)
Wind Gust
  09 kt (10 mph)
Altimeter
29.99 in
Visibility
10 SM
Temperature
31° C
88° F
Dewpoint
15° C
59° F
Humidity
38%
1hr Rain Fall
00.00 in.
24hr Rain Fall
00.00 in.
Sky Condition
Missing
VFR

METAR KJYG 262134Z AUTO 16006G09KT 10SM 31/15 A2999 RMK AO2 PWINO

FAA Disclaimer: The data displayed is for advisory purposes only and is not to be used for flight planning or operations.
Missing Cloud Data